sensor_id;sensor_type;location;lat;lon;timestamp;temperature;humidity
10192;DHT22;17580;50.850;4.504;2023-04-06T00:00:33;7.40;10.90
10192;DHT22;17580;50.850;4.504;2023-04-06T00:03:01;7.40;10.20
10192;DHT22;17580;50.850;4.504;2023-04-06T00:05:28;7.40;10.10
10192;DHT22;17580;50.850;4.504;2023-04-06T00:07:57;7.40;10.70
10192;DHT22;17580;50.850;4.504;2023-04-06T00:10:24;7.40;9.90
10192;DHT22;17580;50.850;4.504;2023-04-06T00:12:52;7.40;10.70
10192;DHT22;17580;50.850;4.504;2023-04-06T00:15:19;7.40;9.50
10192;DHT22;17580;50.850;4.504;2023-04-06T00:17:48;7.40;10.00
10192;DHT22;17580;50.850;4.504;2023-04-06T00:20:15;7.40;10.00
10192;DHT22;17580;50.850;4.504;2023-04-06T00:22:44;7.40;9.70
10192;DHT22;17580;50.850;4.504;2023-04-06T00:25:11;7.50;9.70
10192;DHT22;17580;50.850;4.504;2023-04-06T00:27:38;7.40;10.50
10192;DHT22;17580;50.850;4.504;2023-04-06T00:30:07;7.50;9.30
10192;DHT22;17580;50.850;4.504;2023-04-06T00:32:34;7.40;9.20
10192;DHT22;17580;50.850;4.504;2023-04-06T00:35:04;7.40;9.70
10192;DHT22;17580;50.850;4.504;2023-04-06T00:37:31;7.50;9.10
10192;DHT22;17580;50.850;4.504;2023-04-06T00:39:58;7.40;8.80
10192;DHT22;17580;50.850;4.504;2023-04-06T00:42:25;7.50;8.90
10192;DHT22;17580;50.850;4.504;2023-04-06T00:44:53;7.40;8.80
10192;DHT22;17580;50.850;4.504;2023-04-06T00:47:20;7.40;8.70
10192;DHT22;17580;50.850;4.504;2023-04-06T00:49:48;7.50;8.20
10192;DHT22;17580;50.850;4.504;2023-04-06T00:52:16;7.40;8.30
10192;DHT22;17580;50.850;4.504;2023-04-06T00:54:44;7.40;8.70
10192;DHT22;17580;50.850;4.504;2023-04-06T00:57:11;7.40;8.20
10192;DHT22;17580;50.850;4.504;2023-04-06T00:59:39;7.40;8.40
10192;DHT22;17580;50.850;4.504;2023-04-06T01:02:06;7.40;8.60
10192;DHT22;17580;50.850;4.504;2023-04-06T01:04:33;7.40;8.70
10192;DHT22;17580;50.850;4.504;2023-04-06T01:07:01;7.40;8.90
10192;DHT22;17580;50.850;4.504;2023-04-06T01:09:30;7.40;8.70
10192;DHT22;17580;50.850;4.504;2023-04-06T01:11:57;7.40;8.50
10192;DHT22;17580;50.850;4.504;2023-04-06T01:14:24;7.40;8.40
10192;DHT22;17580;50.850;4.504;2023-04-06T01:16:51;7.40;8.80
10192;DHT22;17580;50.850;4.504;2023-04-06T01:19:18;7.40;9.10
10192;DHT22;17580;50.850;4.504;2023-04-06T01:21:46;7.50;8.90
10192;DHT22;17580;50.850;4.504;2023-04-06T01:24:16;7.50;8.20
10192;DHT22;17580;50.850;4.504;2023-04-06T01:26:43;7.50;8.00
10192;DHT22;17580;50.850;4.504;2023-04-06T01:29:10;7.50;8.20
10192;DHT22;17580;50.850;4.504;2023-04-06T01:31:37;7.40;8.20
10192;DHT22;17580;50.850;4.504;2023-04-06T01:34:04;7.50;9.10
10192;DHT22;17580;50.850;4.504;2023-04-06T01:36:31;7.50;9.60
10192;DHT22;17580;50.850;4.504;2023-04-06T01:38:58;7.40;10.00
10192;DHT22;17580;50.850;4.504;2023-04-06T01:41:27;7.40;11.10
10192;DHT22;17580;50.850;4.504;2023-04-06T01:43:54;7.40;10.50
10192;DHT22;17580;50.850;4.504;2023-04-06T01:46:21;7.40;9.70
10192;DHT22;17580;50.850;4.504;2023-04-06T01:48:48;7.40;10.10
10192;DHT22;17580;50.850;4.504;2023-04-06T01:51:15;7.50;10.00
10192;DHT22;17580;50.850;4.504;2023-04-06T01:53:42;7.50;9.80
10192;DHT22;17580;50.850;4.504;2023-04-06T01:56:10;7.50;9.70
10192;DHT22;17580;50.850;4.504;2023-04-06T01:58:38;7.40;9.40
10192;DHT22;17580;50.850;4.504;2023-04-06T02:01:05;7.40;9.70
10192;DHT22;17580;50.850;4.504;2023-04-06T02:03:32;7.40;9.70
10192;DHT22;17580;50.850;4.504;2023-04-06T02:05:59;7.40;9.30
10192;DHT22;17580;50.850;4.504;2023-04-06T02:08:26;7.40;9.80
10192;DHT22;17580;50.850;4.504;2023-04-06T02:10:53;7.40;10.00
10192;DHT22;17580;50.850;4.504;2023-04-06T02:13:20;7.30;10.60
10192;DHT22;17580;50.850;4.504;2023-04-06T02:15:48;7.30;9.60
10192;DHT22;17580;50.850;4.504;2023-04-06T02:18:15;7.30;9.60
10192;DHT22;17580;50.850;4.504;2023-04-06T02:20:44;7.30;9.50
10192;DHT22;17580;50.850;4.504;2023-04-06T02:23:11;7.30;9.50
10192;DHT22;17580;50.850;4.504;2023-04-06T02:25:38;7.30;9.60
10192;DHT22;17580;50.850;4.504;2023-04-06T02:28:05;7.30;9.90
10192;DHT22;17580;50.850;4.504;2023-04-06T02:30:32;7.30;10.70
10192;DHT22;17580;50.850;4.504;2023-04-06T02:33:01;7.30;9.90
10192;DHT22;17580;50.850;4.504;2023-04-06T02:35:29;7.30;11.20
10192;DHT22;17580;50.850;4.504;2023-04-06T02:37:57;7.30;9.90
10192;DHT22;17580;50.850;4.504;2023-04-06T02:40:24;7.30;10.80
10192;DHT22;17580;50.850;4.504;2023-04-06T02:42:51;7.30;10.60
10192;DHT22;17580;50.850;4.504;2023-04-06T02:45:18;7.20;9.60
10192;DHT22;17580;50.850;4.504;2023-04-06T02:47:45;7.20;10.30
10192;DHT22;17580;50.850;4.504;2023-04-06T02:50:14;7.20;10.20
10192;DHT22;17580;50.850;4.504;2023-04-06T02:52:41;7.20;10.20
10192;DHT22;17580;50.850;4.504;2023-04-06T02:55:08;7.20;10.50
10192;DHT22;17580;50.850;4.504;2023-04-06T02:57:35;7.20;10.60
10192;DHT22;17580;50.850;4.504;2023-04-06T03:00:03;7.20;10.50
10192;DHT22;17580;50.850;4.504;2023-04-06T03:02:30;7.10;10.30
10192;DHT22;17580;50.850;4.504;2023-04-06T03:04:57;7.10;10.20
10192;DHT22;17580;50.850;4.504;2023-04-06T03:07:26;7.10;10.70
10192;DHT22;17580;50.850;4.504;2023-04-06T03:09:53;7.10;10.90
10192;DHT22;17580;50.850;4.504;2023-04-06T03:12:20;7.10;10.50
10192;DHT22;17580;50.850;4.504;2023-04-06T03:14:47;7.10;11.70
10192;DHT22;17580;50.850;4.504;2023-04-06T03:17:14;7.10;11.50
10192;DHT22;17580;50.850;4.504;2023-04-06T03:19:41;7.00;10.90
10192;DHT22;17580;50.850;4.504;2023-04-06T03:22:08;7.00;10.70
10192;DHT22;17580;50.850;4.504;2023-04-06T03:24:36;6.90;11.40
10192;DHT22;17580;50.850;4.504;2023-04-06T03:27:03;6.90;11.20
10192;DHT22;17580;50.850;4.504;2023-04-06T03:29:31;6.90;11.40
10192;DHT22;17580;50.850;4.504;2023-04-06T03:31:58;6.90;11.80
10192;DHT22;17580;50.850;4.504;2023-04-06T03:34:25;6.80;11.30
10192;DHT22;17580;50.850;4.504;2023-04-06T03:36:52;6.80;11.60
10192;DHT22;17580;50.850;4.504;2023-04-06T03:39:19;6.80;11.50
10192;DHT22;17580;50.850;4.504;2023-04-06T03:41:48;6.80;11.50
10192;DHT22;17580;50.850;4.504;2023-04-06T03:44:15;6.80;11.50
10192;DHT22;17580;50.850;4.504;2023-04-06T03:46:42;6.80;12.10
10192;DHT22;17580;50.850;4.504;2023-04-06T03:49:09;6.80;11.90
10192;DHT22;17580;50.850;4.504;2023-04-06T03:51:36;6.80;11.90
10192;DHT22;17580;50.850;4.504;2023-04-06T03:54:03;6.80;12.20
10192;DHT22;17580;50.850;4.504;2023-04-06T03:56:30;6.70;12.20
10192;DHT22;17580;50.850;4.504;2023-04-06T03:58:59;6.80;12.60
10192;DHT22;17580;50.850;4.504;2023-04-06T04:01:27;6.70;13.40
10192;DHT22;17580;50.850;4.504;2023-04-06T04:03:54;6.70;13.10
10192;DHT22;17580;50.850;4.504;2023-04-06T04:06:21;6.70;12.50
10192;DHT22;17580;50.850;4.504;2023-04-06T04:08:48;6.70;13.20
10192;DHT22;17580;50.850;4.504;2023-04-06T04:11:15;6.70;13.40
10192;DHT22;17580;50.850;4.504;2023-04-06T04:13:42;6.70;13.90
10192;DHT22;17580;50.850;4.504;2023-04-06T04:16:11;6.70;13.90
10192;DHT22;17580;50.850;4.504;2023-04-06T04:18:38;6.80;14.40
10192;DHT22;17580;50.850;4.504;2023-04-06T04:21:05;6.80;14.30
10192;DHT22;17580;50.850;4.504;2023-04-06T04:23:32;6.80;13.90
10192;DHT22;17580;50.850;4.504;2023-04-06T04:25:58;6.80;13.80
10192;DHT22;17580;50.850;4.504;2023-04-06T04:28:26;6.90;13.40
10192;DHT22;17580;50.850;4.504;2023-04-06T04:30:52;6.90;13.70
10192;DHT22;17580;50.850;4.504;2023-04-06T04:33:21;6.80;15.90
10192;DHT22;17580;50.850;4.504;2023-04-06T04:35:48;6.70;15.70
10192;DHT22;17580;50.850;4.504;2023-04-06T04:38:15;6.80;14.90
10192;DHT22;17580;50.850;4.504;2023-04-06T04:40:42;6.90;13.90
10192;DHT22;17580;50.850;4.504;2023-04-06T04:43:09;7.00;13.80
10192;DHT22;17580;50.850;4.504;2023-04-06T04:45:36;6.90;14.10
10192;DHT22;17580;50.850;4.504;2023-04-06T04:48:03;7.00;14.30
10192;DHT22;17580;50.850;4.504;2023-04-06T04:50:32;7.00;14.50
10192;DHT22;17580;50.850;4.504;2023-04-06T04:52:59;7.10;15.00
10192;DHT22;17580;50.850;4.504;2023-04-06T04:55:27;7.00;14.10
10192;DHT22;17580;50.850;4.504;2023-04-06T04:57:54;7.10;14.20
10192;DHT22;17580;50.850;4.504;2023-04-06T05:00:22;7.10;15.70
10192;DHT22;17580;50.850;4.504;2023-04-06T05:02:49;7.10;14.70
10192;DHT22;17580;50.850;4.504;2023-04-06T05:05:16;7.10;14.30
10192;DHT22;17580;50.850;4.504;2023-04-06T05:07:44;7.10;14.70
10192;DHT22;17580;50.850;4.504;2023-04-06T05:10:11;7.20;14.60
10192;DHT22;17580;50.850;4.504;2023-04-06T05:12:38;7.20;14.70
10192;DHT22;17580;50.850;4.504;2023-04-06T05:15:06;7.20;14.70
10192;DHT22;17580;50.850;4.504;2023-04-06T05:17:33;7.30;14.60
10192;DHT22;17580;50.850;4.504;2023-04-06T05:20:00;7.30;14.80
10192;DHT22;17580;50.850;4.504;2023-04-06T05:22:27;7.30;14.80
10192;DHT22;17580;50.850;4.504;2023-04-06T05:24:56;7.30;15.00
10192;DHT22;17580;50.850;4.504;2023-04-06T05:27:23;7.30;16.00
10192;DHT22;17580;50.850;4.504;2023-04-06T05:29:50;7.30;15.90
10192;DHT22;17580;50.850;4.504;2023-04-06T05:32:17;7.40;15.60
10192;DHT22;17580;50.850;4.504;2023-04-06T05:34:48;7.30;15.90
10192;DHT22;17580;50.850;4.504;2023-04-06T05:37:15;7.30;15.80
10192;DHT22;17580;50.850;4.504;2023-04-06T05:39:42;7.40;16.30
10192;DHT22;17580;50.850;4.504;2023-04-06T05:42:10;7.40;16.40
10192;DHT22;17580;50.850;4.504;2023-04-06T05:44:38;7.40;16.50
10192;DHT22;17580;50.850;4.504;2023-04-06T05:47:05;7.40;17.80
10192;DHT22;17580;50.850;4.504;2023-04-06T05:49:32;7.40;17.40
10192;DHT22;17580;50.850;4.504;2023-04-06T05:52:00;7.50;17.00
10192;DHT22;17580;50.850;4.504;2023-04-06T05:54:27;7.50;15.30
10192;DHT22;17580;50.850;4.504;2023-04-06T05:56:54;7.60;16.80
10192;DHT22;17580;50.850;4.504;2023-04-06T05:59:22;7.70;15.80
10192;DHT22;17580;50.850;4.504;2023-04-06T06:01:50;7.70;16.30
10192;DHT22;17580;50.850;4.504;2023-04-06T06:04:17;7.70;16.80
10192;DHT22;17580;50.850;4.504;2023-04-06T06:06:44;7.70;16.70
10192;DHT22;17580;50.850;4.504;2023-04-06T06:09:11;7.70;16.90
10192;DHT22;17580;50.850;4.504;2023-04-06T06:11:38;7.80;17.20
10192;DHT22;17580;50.850;4.504;2023-04-06T06:14:06;7.80;18.10
10192;DHT22;17580;50.850;4.504;2023-04-06T06:16:34;7.90;17.60
10192;DHT22;17580;50.850;4.504;2023-04-06T06:19:01;8.00;17.80
10192;DHT22;17580;50.850;4.504;2023-04-06T06:21:29;8.00;19.30
10192;DHT22;17580;50.850;4.504;2023-04-06T06:23:56;8.00;18.40
10192;DHT22;17580;50.850;4.504;2023-04-06T06:26:23;8.10;17.30
10192;DHT22;17580;50.850;4.504;2023-04-06T06:28:50;8.10;20.40
10192;DHT22;17580;50.850;4.504;2023-04-06T06:31:17;8.20;19.20
10192;DHT22;17580;50.850;4.504;2023-04-06T06:33:47;8.10;18.10
10192;DHT22;17580;50.850;4.504;2023-04-06T06:36:16;8.10;17.00
10192;DHT22;17580;50.850;4.504;2023-04-06T06:38:43;8.20;17.10
10192;DHT22;17580;50.850;4.504;2023-04-06T06:41:10;8.20;18.10
10192;DHT22;17580;50.850;4.504;2023-04-06T06:43:38;8.20;19.00
10192;DHT22;17580;50.850;4.504;2023-04-06T06:46:05;8.20;19.80
10192;DHT22;17580;50.850;4.504;2023-04-06T06:48:32;8.20;20.60
10192;DHT22;17580;50.850;4.504;2023-04-06T06:51:00;8.20;23.20
10192;DHT22;17580;50.850;4.504;2023-04-06T06:53:27;8.10;24.00
10192;DHT22;17580;50.850;4.504;2023-04-06T06:55:55;8.10;23.80
10192;DHT22;17580;50.850;4.504;2023-04-06T06:58:21;8.20;26.60
10192;DHT22;17580;50.850;4.504;2023-04-06T07:00:49;8.10;30.40
10192;DHT22;17580;50.850;4.504;2023-04-06T07:03:16;8.10;30.60
10192;DHT22;17580;50.850;4.504;2023-04-06T07:05:45;8.10;32.80
10192;DHT22;17580;50.850;4.504;2023-04-06T07:08:19;8.10;34.40
10192;DHT22;17580;50.850;4.504;2023-04-06T07:10:46;8.10;37.40
10192;DHT22;17580;50.850;4.504;2023-04-06T07:13:14;8.20;38.50
10192;DHT22;17580;50.850;4.504;2023-04-06T07:15:44;8.20;43.20
10192;DHT22;17580;50.850;4.504;2023-04-06T07:18:11;8.20;42.00
10192;DHT22;17580;50.850;4.504;2023-04-06T07:20:38;8.20;44.40
10192;DHT22;17580;50.850;4.504;2023-04-06T07:23:06;8.20;46.00
10192;DHT22;17580;50.850;4.504;2023-04-06T07:25:34;8.20;45.60
10192;DHT22;17580;50.850;4.504;2023-04-06T07:28:02;8.20;49.60
10192;DHT22;17580;50.850;4.504;2023-04-06T07:30:29;8.20;48.60
10192;DHT22;17580;50.850;4.504;2023-04-06T07:32:56;8.20;51.80
10192;DHT22;17580;50.850;4.504;2023-04-06T07:35:25;8.20;52.20
10192;DHT22;17580;50.850;4.504;2023-04-06T07:37:53;8.30;54.10
10192;DHT22;17580;50.850;4.504;2023-04-06T07:40:20;8.30;54.50
10192;DHT22;17580;50.850;4.504;2023-04-06T07:42:48;8.40;55.60
10192;DHT22;17580;50.850;4.504;2023-04-06T07:45:15;8.50;56.80
10192;DHT22;17580;50.850;4.504;2023-04-06T07:47:42;8.50;60.50
10192;DHT22;17580;50.850;4.504;2023-04-06T07:50:10;8.60;63.20
10192;DHT22;17580;50.850;4.504;2023-04-06T07:52:38;8.60;61.90
10192;DHT22;17580;50.850;4.504;2023-04-06T07:55:05;8.60;61.10
10192;DHT22;17580;50.850;4.504;2023-04-06T07:57:32;8.60;64.80
10192;DHT22;17580;50.850;4.504;2023-04-06T08:00:01;8.60;64.10
10192;DHT22;17580;50.850;4.504;2023-04-06T08:02:29;8.60;63.80
10192;DHT22;17580;50.850;4.504;2023-04-06T08:04:56;8.60;66.60
10192;DHT22;17580;50.850;4.504;2023-04-06T08:07:23;8.60;68.00
10192;DHT22;17580;50.850;4.504;2023-04-06T08:09:51;8.60;71.10
10192;DHT22;17580;50.850;4.504;2023-04-06T08:12:18;8.70;70.90
10192;DHT22;17580;50.850;4.504;2023-04-06T08:14:45;8.70;71.70
10192;DHT22;17580;50.850;4.504;2023-04-06T08:17:13;8.60;71.40
10192;DHT22;17580;50.850;4.504;2023-04-06T08:19:42;8.50;73.30
10192;DHT22;17580;50.850;4.504;2023-04-06T08:22:10;8.50;74.10
10192;DHT22;17580;50.850;4.504;2023-04-06T08:24:37;8.50;77.70
10192;DHT22;17580;50.850;4.504;2023-04-06T08:27:04;8.50;80.30
10192;DHT22;17580;50.850;4.504;2023-04-06T08:29:31;8.50;82.80
10192;DHT22;17580;50.850;4.504;2023-04-06T08:31:58;8.60;81.70
10192;DHT22;17580;50.850;4.504;2023-04-06T08:34:27;8.60;81.00
10192;DHT22;17580;50.850;4.504;2023-04-06T08:36:54;8.60;78.30
10192;DHT22;17580;50.850;4.504;2023-04-06T08:39:21;8.70;81.30
10192;DHT22;17580;50.850;4.504;2023-04-06T08:41:51;8.70;79.30
10192;DHT22;17580;50.850;4.504;2023-04-06T08:44:19;8.70;78.60
10192;DHT22;17580;50.850;4.504;2023-04-06T08:46:46;8.70;82.60
10192;DHT22;17580;50.850;4.504;2023-04-06T08:49:14;8.80;80.30
10192;DHT22;17580;50.850;4.504;2023-04-06T08:51:44;8.80;82.40
10192;DHT22;17580;50.850;4.504;2023-04-06T08:54:11;8.80;84.00
10192;DHT22;17580;50.850;4.504;2023-04-06T08:56:39;8.90;83.70
10192;DHT22;17580;50.850;4.504;2023-04-06T08:59:06;8.90;82.70
10192;DHT22;17580;50.850;4.504;2023-04-06T09:01:38;8.90;79.20
10192;DHT22;17580;50.850;4.504;2023-04-06T09:04:07;8.90;85.60
10192;DHT22;17580;50.850;4.504;2023-04-06T09:06:36;9.00;87.80
10192;DHT22;17580;50.850;4.504;2023-04-06T09:09:05;9.20;87.50
10192;DHT22;17580;50.850;4.504;2023-04-06T09:11:43;9.20;85.20
10192;DHT22;17580;50.850;4.504;2023-04-06T09:14:10;9.10;82.50
10192;DHT22;17580;50.850;4.504;2023-04-06T09:16:39;9.10;88.50
10192;DHT22;17580;50.850;4.504;2023-04-06T09:19:07;9.00;87.40
10192;DHT22;17580;50.850;4.504;2023-04-06T09:21:34;9.10;91.20
10192;DHT22;17580;50.850;4.504;2023-04-06T09:24:05;9.20;92.50
10192;DHT22;17580;50.850;4.504;2023-04-06T09:26:43;9.30;91.80
10192;DHT22;17580;50.850;4.504;2023-04-06T09:29:10;9.10;85.40
10192;DHT22;17580;50.850;4.504;2023-04-06T09:31:48;9.00;89.20
10192;DHT22;17580;50.850;4.504;2023-04-06T09:34:21;9.00;90.60
10192;DHT22;17580;50.850;4.504;2023-04-06T09:36:49;9.10;91.00
10192;DHT22;17580;50.850;4.504;2023-04-06T09:39:20;9.20;90.50
10192;DHT22;17580;50.850;4.504;2023-04-06T09:41:50;9.30;93.00
10192;DHT22;17580;50.850;4.504;2023-04-06T09:44:18;9.30;91.50
10192;DHT22;17580;50.850;4.504;2023-04-06T09:46:46;9.20;91.40
10192;DHT22;17580;50.850;4.504;2023-04-06T09:49:13;9.20;91.00
10192;DHT22;17580;50.850;4.504;2023-04-06T09:51:43;9.20;92.60
10192;DHT22;17580;50.850;4.504;2023-04-06T09:54:12;9.20;92.70
10192;DHT22;17580;50.850;4.504;2023-04-06T09:56:46;9.00;91.60
10192;DHT22;17580;50.850;4.504;2023-04-06T09:59:14;8.90;93.70
10192;DHT22;17580;50.850;4.504;2023-04-06T10:01:44;8.80;97.10
10192;DHT22;17580;50.850;4.504;2023-04-06T10:04:22;8.80;99.60
10192;DHT22;17580;50.850;4.504;2023-04-06T10:06:54;8.80;99.90
10192;DHT22;17580;50.850;4.504;2023-04-06T10:09:25;8.80;98.60
10192;DHT22;17580;50.850;4.504;2023-04-06T10:11:57;8.70;99.10
10192;DHT22;17580;50.850;4.504;2023-04-06T10:14:25;8.70;99.90
10192;DHT22;17580;50.850;4.504;2023-04-06T10:16:52;8.70;99.90
10192;DHT22;17580;50.850;4.504;2023-04-06T10:19:24;8.70;99.90
10192;DHT22;17580;50.850;4.504;2023-04-06T10:21:55;8.70;99.90
10192;DHT22;17580;50.850;4.504;2023-04-06T10:24:24;8.70;99.90
10192;DHT22;17580;50.850;4.504;2023-04-06T10:27:01;8.70;99.90
10192;DHT22;17580;50.850;4.504;2023-04-06T10:29:31;8.80;99.90
10192;DHT22;17580;50.850;4.504;2023-04-06T10:32:07;8.70;99.90
10192;DHT22;17580;50.850;4.504;2023-04-06T10:34:34;8.80;99.90
10192;DHT22;17580;50.850;4.504;2023-04-06T10:37:11;8.80;99.90
10192;DHT22;17580;50.850;4.504;2023-04-06T10:39:46;8.70;99.90
10192;DHT22;17580;50.850;4.504;2023-04-06T10:42:14;8.70;99.90
10192;DHT22;17580;50.850;4.504;2023-04-06T10:44:43;8.60;99.90
10192;DHT22;17580;50.850;4.504;2023-04-06T10:47:16;8.60;99.90
10192;DHT22;17580;50.850;4.504;2023-04-06T10:49:43;8.60;99.90
10192;DHT22;17580;50.850;4.504;2023-04-06T10:52:10;8.70;99.90
10192;DHT22;17580;50.850;4.504;2023-04-06T10:54:41;8.80;99.90
10192;DHT22;17580;50.850;4.504;2023-04-06T10:57:09;8.90;99.90
10192;DHT22;17580;50.850;4.504;2023-04-06T10:59:42;8.90;99.90
10192;DHT22;17580;50.850;4.504;2023-04-06T11:02:19;8.90;99.90
10192;DHT22;17580;50.850;4.504;2023-04-06T11:04:54;8.80;99.90
10192;DHT22;17580;50.850;4.504;2023-04-06T11:07:25;8.80;99.90
10192;DHT22;17580;50.850;4.504;2023-04-06T11:09:52;8.80;99.90
10192;DHT22;17580;50.850;4.504;2023-04-06T11:12:23;8.70;99.90
10192;DHT22;17580;50.850;4.504;2023-04-06T11:14:56;8.60;99.90
10192;DHT22;17580;50.850;4.504;2023-04-06T11:17:28;8.60;99.90
10192;DHT22;17580;50.850;4.504;2023-04-06T11:19:55;8.70;99.90
10192;DHT22;17580;50.850;4.504;2023-04-06T11:22:22;8.70;99.90
10192;DHT22;17580;50.850;4.504;2023-04-06T11:24:49;8.80;99.90
10192;DHT22;17580;50.850;4.504;2023-04-06T11:27:17;8.70;99.90
10192;DHT22;17580;50.850;4.504;2023-04-06T11:29:45;8.60;99.90
10192;DHT22;17580;50.850;4.504;2023-04-06T11:32:20;8.70;99.90
10192;DHT22;17580;50.850;4.504;2023-04-06T11:34:48;8.90;99.90
10192;DHT22;17580;50.850;4.504;2023-04-06T11:37:15;9.00;99.90
10192;DHT22;17580;50.850;4.504;2023-04-06T11:39:47;8.90;99.90
10192;DHT22;17580;50.850;4.504;2023-04-06T11:42:21;9.00;99.90
10192;DHT22;17580;50.850;4.504;2023-04-06T11:44:51;9.00;99.90
10192;DHT22;17580;50.850;4.504;2023-04-06T11:47:20;9.10;99.90
10192;DHT22;17580;50.850;4.504;2023-04-06T11:49:53;9.10;99.90
10192;DHT22;17580;50.850;4.504;2023-04-06T11:52:23;9.30;99.90
10192;DHT22;17580;50.850;4.504;2023-04-06T11:54:51;9.20;99.90
10192;DHT22;17580;50.850;4.504;2023-04-06T11:57:20;9.40;99.90
10192;DHT22;17580;50.850;4.504;2023-04-06T11:59:47;9.30;99.90
10192;DHT22;17580;50.850;4.504;2023-04-06T12:02:14;9.30;99.90
10192;DHT22;17580;50.850;4.504;2023-04-06T12:04:42;9.50;99.90
10192;DHT22;17580;50.850;4.504;2023-04-06T12:07:09;9.50;99.90
10192;DHT22;17580;50.850;4.504;2023-04-06T12:09:36;9.50;99.90
10192;DHT22;17580;50.850;4.504;2023-04-06T12:12:04;9.50;99.90
10192;DHT22;17580;50.850;4.504;2023-04-06T12:14:31;9.50;99.90
10192;DHT22;17580;50.850;4.504;2023-04-06T12:16:58;9.60;99.90
10192;DHT22;17580;50.850;4.504;2023-04-06T12:19:26;9.60;99.90
10192;DHT22;17580;50.850;4.504;2023-04-06T12:21:54;9.60;99.90
10192;DHT22;17580;50.850;4.504;2023-04-06T12:24:22;9.80;99.90
10192;DHT22;17580;50.850;4.504;2023-04-06T12:26:49;9.80;99.90
10192;DHT22;17580;50.850;4.504;2023-04-06T12:29:16;9.90;99.90
10192;DHT22;17580;50.850;4.504;2023-04-06T12:31:43;9.70;99.90
10192;DHT22;17580;50.850;4.504;2023-04-06T12:34:10;9.70;99.90
10192;DHT22;17580;50.850;4.504;2023-04-06T12:36:37;9.60;99.90
10192;DHT22;17580;50.850;4.504;2023-04-06T12:39:06;9.80;99.90
10192;DHT22;17580;50.850;4.504;2023-04-06T12:41:33;9.90;99.90
10192;DHT22;17580;50.850;4.504;2023-04-06T12:44:01;10.00;99.90
10192;DHT22;17580;50.850;4.504;2023-04-06T12:46:29;9.90;99.90
10192;DHT22;17580;50.850;4.504;2023-04-06T12:48:56;9.70;99.90
10192;DHT22;17580;50.850;4.504;2023-04-06T12:51:26;9.60;99.90
10192;DHT22;17580;50.850;4.504;2023-04-06T12:53:53;9.60;99.90
10192;DHT22;17580;50.850;4.504;2023-04-06T12:56:22;9.40;99.90
10192;DHT22;17580;50.850;4.504;2023-04-06T12:58:51;9.50;99.90
10192;DHT22;17580;50.850;4.504;2023-04-06T13:01:18;9.50;99.90
10192;DHT22;17580;50.850;4.504;2023-04-06T13:03:45;9.40;99.90
10192;DHT22;17580;50.850;4.504;2023-04-06T13:06:12;9.30;99.90
10192;DHT22;17580;50.850;4.504;2023-04-06T13:08:41;9.00;99.90
10192;DHT22;17580;50.850;4.504;2023-04-06T13:11:08;9.20;99.90
10192;DHT22;17580;50.850;4.504;2023-04-06T13:13:36;9.10;99.90
10192;DHT22;17580;50.850;4.504;2023-04-06T13:16:05;9.20;99.90
10192;DHT22;17580;50.850;4.504;2023-04-06T13:18:33;9.10;99.90
10192;DHT22;17580;50.850;4.504;2023-04-06T13:21:02;9.00;99.90
10192;DHT22;17580;50.850;4.504;2023-04-06T13:23:30;9.00;99.90
10192;DHT22;17580;50.850;4.504;2023-04-06T13:25:58;9.00;99.90
10192;DHT22;17580;50.850;4.504;2023-04-06T13:28:26;9.00;99.90
10192;DHT22;17580;50.850;4.504;2023-04-06T13:30:55;8.90;99.90
10192;DHT22;17580;50.850;4.504;2023-04-06T13:33:22;8.80;99.90
10192;DHT22;17580;50.850;4.504;2023-04-06T13:35:49;8.90;99.90
10192;DHT22;17580;50.850;4.504;2023-04-06T13:38:16;8.90;99.90
10192;DHT22;17580;50.850;4.504;2023-04-06T13:40:43;9.00;99.90
10192;DHT22;17580;50.850;4.504;2023-04-06T13:43:11;9.00;99.90
10192;DHT22;17580;50.850;4.504;2023-04-06T13:45:38;9.00;99.90
10192;DHT22;17580;50.850;4.504;2023-04-06T13:48:07;9.00;99.90
10192;DHT22;17580;50.850;4.504;2023-04-06T13:50:34;9.00;99.90
10192;DHT22;17580;50.850;4.504;2023-04-06T13:53:01;8.90;99.90
10192;DHT22;17580;50.850;4.504;2023-04-06T13:55:28;9.00;99.90
10192;DHT22;17580;50.850;4.504;2023-04-06T13:57:56;9.00;99.90
10192;DHT22;17580;50.850;4.504;2023-04-06T14:00:24;9.10;99.90
10192;DHT22;17580;50.850;4.504;2023-04-06T14:02:51;9.10;99.90
10192;DHT22;17580;50.850;4.504;2023-04-06T14:05:21;9.00;99.90
10192;DHT22;17580;50.850;4.504;2023-04-06T14:07:49;9.10;99.90
10192;DHT22;17580;50.850;4.504;2023-04-06T14:10:16;9.00;99.90
10192;DHT22;17580;50.850;4.504;2023-04-06T14:12:43;9.00;99.90
10192;DHT22;17580;50.850;4.504;2023-04-06T14:15:11;9.00;99.90
10192;DHT22;17580;50.850;4.504;2023-04-06T14:17:38;9.00;99.90
10192;DHT22;17580;50.850;4.504;2023-04-06T14:20:06;8.90;99.90
10192;DHT22;17580;50.850;4.504;2023-04-06T14:22:35;9.00;99.90
10192;DHT22;17580;50.850;4.504;2023-04-06T14:25:02;9.10;99.90
10192;DHT22;17580;50.850;4.504;2023-04-06T14:27:28;9.10;99.90
10192;DHT22;17580;50.850;4.504;2023-04-06T14:29:56;9.20;99.90
10192;DHT22;17580;50.850;4.504;2023-04-06T14:32:23;9.30;99.90
10192;DHT22;17580;50.850;4.504;2023-04-06T14:34:50;9.30;99.90
10192;DHT22;17580;50.850;4.504;2023-04-06T14:37:17;9.30;99.90
10192;DHT22;17580;50.850;4.504;2023-04-06T14:39:45;9.30;99.90
10192;DHT22;17580;50.850;4.504;2023-04-06T14:42:12;9.10;99.90
10192;DHT22;17580;50.850;4.504;2023-04-06T14:44:39;9.20;99.90
10192;DHT22;17580;50.850;4.504;2023-04-06T14:47:10;9.30;99.90
10192;DHT22;17580;50.850;4.504;2023-04-06T14:49:37;9.30;99.90
10192;DHT22;17580;50.850;4.504;2023-04-06T14:52:04;9.30;99.90
10192;DHT22;17580;50.850;4.504;2023-04-06T14:54:31;9.40;99.90
10192;DHT22;17580;50.850;4.504;2023-04-06T14:57:00;9.50;99.90
10192;DHT22;17580;50.850;4.504;2023-04-06T14:59:27;9.40;99.90
10192;DHT22;17580;50.850;4.504;2023-04-06T15:01:54;9.30;99.90
10192;DHT22;17580;50.850;4.504;2023-04-06T15:04:21;9.50;99.90
10192;DHT22;17580;50.850;4.504;2023-04-06T15:06:48;9.50;99.90
10192;DHT22;17580;50.850;4.504;2023-04-06T15:09:15;9.40;99.90
10192;DHT22;17580;50.850;4.504;2023-04-06T15:11:42;9.50;99.90
10192;DHT22;17580;50.850;4.504;2023-04-06T15:14:10;9.60;99.90
10192;DHT22;17580;50.850;4.504;2023-04-06T15:16:37;9.50;99.90
10192;DHT22;17580;50.850;4.504;2023-04-06T15:19:04;9.50;99.90
10192;DHT22;17580;50.850;4.504;2023-04-06T15:21:31;9.50;99.90
10192;DHT22;17580;50.850;4.504;2023-04-06T15:23:58;9.70;99.90
10192;DHT22;17580;50.850;4.504;2023-04-06T15:26:25;9.80;99.90
10192;DHT22;17580;50.850;4.504;2023-04-06T15:28:52;9.90;99.90
10192;DHT22;17580;50.850;4.504;2023-04-06T15:31:20;9.90;99.90
10192;DHT22;17580;50.850;4.504;2023-04-06T15:33:47;9.80;99.90
10192;DHT22;17580;50.850;4.504;2023-04-06T15:36:23;9.80;99.90
10192;DHT22;17580;50.850;4.504;2023-04-06T15:38:51;9.80;99.90
10192;DHT22;17580;50.850;4.504;2023-04-06T15:41:18;9.80;99.90
10192;DHT22;17580;50.850;4.504;2023-04-06T15:43:45;9.80;99.90
10192;DHT22;17580;50.850;4.504;2023-04-06T15:46:12;9.80;99.90
10192;DHT22;17580;50.850;4.504;2023-04-06T15:48:41;9.80;99.90
10192;DHT22;17580;50.850;4.504;2023-04-06T15:51:08;9.90;99.90